createdAt,value
2022-12-08T00:01:32.606Z,95175.48
2022-12-08T00:04:01.826Z,95172.98
2022-12-08T00:06:52.927Z,95170.77
2022-12-08T00:09:24.185Z,95175.77
2022-12-08T00:11:57.684Z,95175.52
2022-12-08T00:14:27.793Z,95181.98
2022-12-08T00:16:56.217Z,95177.63
2022-12-08T00:19:25.055Z,95169.66
2022-12-08T00:21:53.476Z,95174.25
2022-12-08T00:24:22.374Z,95178.98
2022-12-08T00:26:50.534Z,95173.50
2022-12-08T00:29:18.543Z,95177.63
2022-12-08T00:31:47.110Z,95180.51
2022-12-08T00:34:15.757Z,95179.56
2022-12-08T00:36:43.791Z,95181.67
2022-12-08T00:39:12.407Z,95184.27
2022-12-08T00:41:58.971Z,95188.87
2022-12-08T00:44:26.870Z,95194.88
2022-12-08T00:46:55.270Z,95193.23
2022-12-08T00:54:00.541Z,95197.05
2022-12-08T00:56:28.469Z,95204.52
2022-12-08T00:58:56.388Z,95200.47
2022-12-08T01:01:24.406Z,95203.82
2022-12-08T01:03:52.799Z,95206.04
2022-12-08T01:06:20.827Z,95203.52
2022-12-08T01:08:48.904Z,95208.32
2022-12-08T01:11:17.915Z,95212.08
2022-12-08T01:13:46.704Z,95217.92
2022-12-08T01:16:21.654Z,95217.60
2022-12-08T01:18:49.714Z,95218.80
2022-12-08T01:21:18.097Z,95222.14
2022-12-08T01:23:46.386Z,95222.65
2022-12-08T01:26:16.092Z,95226.44
2022-12-08T01:28:44.683Z,95224.23
2022-12-08T01:31:13.707Z,95228.68
2022-12-08T01:33:41.963Z,95226.19
2022-12-08T01:36:18.745Z,95220.23
2022-12-08T01:38:46.760Z,95218.88
2022-12-08T01:41:16.215Z,95217.88
2022-12-08T01:43:50.245Z,95218.27
2022-12-08T01:46:18.166Z,95219.77
2022-12-08T01:48:46.204Z,95212.51
2022-12-08T01:51:14.503Z,95211.38
2022-12-08T01:53:42.556Z,95212.76
2022-12-08T01:56:17.236Z,95214.52
2022-12-08T01:58:48.056Z,95213.01
2022-12-08T02:01:16.677Z,95214.38
2022-12-08T02:03:50.334Z,95220.44
2022-12-08T02:06:19.277Z,95216.88
2022-12-08T02:08:47.913Z,95214.80
2022-12-08T02:11:16.299Z,95219.35
2022-12-08T02:13:46.319Z,95217.05
2022-12-08T02:16:17.225Z,95220.90
2022-12-08T02:19:29.176Z,95223.04
2022-12-08T02:21:54.797Z,95227.27
2022-12-08T02:24:31.570Z,95227.20
2022-12-08T02:27:05.792Z,95224.48
2022-12-08T02:29:40.117Z,95222.66
2022-12-08T02:32:14.133Z,95224.30
2022-12-08T02:34:42.007Z,95221.63
2022-12-08T02:37:19.300Z,95221.63
2022-12-08T02:39:53.939Z,95225.29
2022-12-08T02:42:38.288Z,95223.52
2022-12-08T02:45:15.271Z,95225.42
2022-12-08T02:47:43.588Z,95224.25
2022-12-08T02:50:12.453Z,95223.43
2022-12-08T02:52:44.523Z,95217.50
2022-12-08T02:55:27.828Z,95221.39
2022-12-08T02:58:11.293Z,95223.45
2022-12-08T03:00:45.307Z,95226.34
2022-12-08T03:03:13.180Z,95222.71
2022-12-08T03:05:59.814Z,95221.28
2022-12-08T03:08:42.530Z,95215.54
2022-12-08T03:11:34.966Z,95214.30
2022-12-08T03:14:04.887Z,95210.83
2022-12-08T03:16:35.118Z,95206.38
2022-12-08T03:19:23.275Z,95206.03
2022-12-08T03:21:53.597Z,95215.67
2022-12-08T03:24:23.178Z,95213.55
2022-12-08T03:26:54.780Z,95215.21
2022-12-08T03:29:23.062Z,95211.23
2022-12-08T03:31:54.573Z,95216.50
2022-12-08T03:34:24.016Z,95212.44
2022-12-08T03:36:51.895Z,95210.86
2022-12-08T03:39:19.979Z,95208.84
2022-12-08T03:41:47.938Z,95211.73
2022-12-08T03:44:16.007Z,95213.08
2022-12-08T03:46:43.906Z,95212.72
2022-12-08T03:49:11.989Z,95207.65
2022-12-08T03:51:39.944Z,95207.17
2022-12-08T03:54:07.818Z,95208.98
2022-12-08T03:56:36.766Z,95208.36
2022-12-08T03:59:05.506Z,95200.96
2022-12-08T04:01:33.457Z,95198.83
2022-12-08T04:04:01.543Z,95200.62
2022-12-08T04:06:29.573Z,95203.91
2022-12-08T04:08:57.481Z,95200.16
2022-12-08T04:11:25.368Z,95202.36
2022-12-08T04:13:53.462Z,95201.17
2022-12-08T04:16:23.251Z,95206.46
2022-12-08T04:18:51.463Z,95207.17
2022-12-08T04:21:19.742Z,95207.63
2022-12-08T04:23:47.776Z,95212.14
2022-12-08T04:26:16.007Z,95210.73
2022-12-08T04:28:44.797Z,95207.66
2022-12-08T04:31:12.912Z,95206.26
2022-12-08T04:33:40.953Z,95209.66
2022-12-08T04:36:09.346Z,95215.65
2022-12-08T04:38:37.413Z,95213.05
2022-12-08T04:41:05.492Z,95206.52
2022-12-08T04:43:33.567Z,95201.10
2022-12-08T04:46:01.644Z,95199.55
2022-12-08T04:48:29.517Z,95200.75
2022-12-08T04:50:57.422Z,95209.78
2022-12-08T04:53:26.797Z,95212.06
2022-12-08T04:55:55.078Z,95218.11
2022-12-08T04:58:23.157Z,95213.60
2022-12-08T05:00:51.217Z,95214.02
2022-12-08T05:03:22.647Z,95217.23
2022-12-08T05:05:56.254Z,95219.61
2022-12-08T05:08:24.197Z,95219.17
2022-12-08T05:10:52.232Z,95221.73
2022-12-08T05:13:20.216Z,95225.96
2022-12-08T05:15:48.223Z,95224.84
2022-12-08T05:18:16.776Z,95229.42
2022-12-08T05:20:44.583Z,95227.43
2022-12-08T05:23:12.457Z,95225.59
2022-12-08T05:25:40.391Z,95225.36
2022-12-08T05:28:39.771Z,95227.95
2022-12-08T05:30:56.305Z,95228.24
2022-12-08T05:33:24.137Z,95227.91
2022-12-08T05:35:52.216Z,95231.05
2022-12-08T05:38:20.703Z,95235.02
2022-12-08T05:40:48.730Z,95232.55
2022-12-08T05:43:16.782Z,95232.34
2022-12-08T05:45:44.844Z,95233.69
2022-12-08T05:48:13.044Z,95232.27
2022-12-08T05:50:45.719Z,95234.84
2022-12-08T05:53:14.520Z,95231.46
2022-12-08T05:55:42.552Z,95232.46
2022-12-08T05:58:13.100Z,95235.25
2022-12-08T06:00:42.494Z,95239.86
2022-12-08T06:03:11.961Z,95244.34
2022-12-08T06:05:41.630Z,95236.89
2022-12-08T06:08:10.344Z,95233.56
2022-12-08T06:10:38.926Z,95234.88
2022-12-08T06:13:07.096Z,95238.77
2022-12-08T06:15:38.745Z,95241.14
2022-12-08T06:18:06.907Z,95244.27
2022-12-08T06:20:34.848Z,95246.79
2022-12-08T06:23:03.605Z,95248.45
2022-12-08T06:25:31.738Z,95249.92
2022-12-08T06:27:59.872Z,95247.44
2022-12-08T06:30:28.955Z,95245.48
2022-12-08T06:32:57.130Z,95246.88
2022-12-08T06:35:25.183Z,95248.39
2022-12-08T06:37:53.144Z,95246.98
2022-12-08T06:40:21.281Z,95246.52
2022-12-08T06:42:49.214Z,95248.15
2022-12-08T06:45:18.144Z,95252.52
2022-12-08T06:47:46.116Z,95255.35
2022-12-08T06:50:14.956Z,95250.63
2022-12-08T06:52:54.268Z,95251.81
2022-12-08T06:55:57.416Z,95244.81
2022-12-08T06:58:14.815Z,95244.34
2022-12-08T07:00:43.605Z,95245.55
2022-12-08T07:03:12.529Z,95248.29
2022-12-08T07:05:40.721Z,95244.95
2022-12-08T07:08:09.899Z,95243.70
2022-12-08T07:10:38.110Z,95247.61
2022-12-08T07:13:06.264Z,95242.23
2022-12-08T07:15:34.732Z,95242.23
2022-12-08T07:18:02.617Z,95240.63
2022-12-08T07:20:30.614Z,95241.39
2022-12-08T07:22:58.844Z,95238.98
2022-12-08T07:25:27.074Z,95230.44
2022-12-08T07:27:54.955Z,95233.27
2022-12-08T07:30:23.056Z,95230.11
2022-12-08T07:32:50.923Z,95236.01
2022-12-08T07:35:18.928Z,95239.63
2022-12-08T07:37:47.075Z,95238.84
2022-12-08T07:40:15.348Z,95238.52
2022-12-08T07:42:43.313Z,95244.69
2022-12-08T07:45:11.479Z,95244.33
2022-12-08T07:47:39.439Z,95252.13
2022-12-08T07:50:08.227Z,95249.70
2022-12-08T07:52:36.331Z,95256.08
2022-12-08T07:55:04.505Z,95255.82
2022-12-08T07:57:32.613Z,95247.63
2022-12-08T08:00:00.868Z,95252.02
2022-12-08T08:02:29.140Z,95257.27
2022-12-08T08:04:57.361Z,95259.95
2022-12-08T08:07:25.399Z,95254.64
2022-12-08T08:09:53.459Z,95251.80
2022-12-08T08:12:36.992Z,95246.44
2022-12-08T08:15:07.632Z,95249.58
2022-12-08T08:17:36.732Z,95254.23
2022-12-08T08:20:07.482Z,95256.36
2022-12-08T08:22:36.764Z,95257.58
2022-12-08T08:25:05.957Z,95251.45
2022-12-08T08:27:34.587Z,95250.46
2022-12-08T08:30:03.321Z,95254.22
2022-12-08T08:32:34.703Z,95257.56
2022-12-08T08:35:03.072Z,95256.95
2022-12-08T08:37:31.064Z,95255.24
2022-12-08T08:39:59.179Z,95249.72
2022-12-08T08:42:28.060Z,95257.31
2022-12-08T08:44:56.053Z,95256.91
2022-12-08T08:47:24.147Z,95246.61
2022-12-08T08:49:52.171Z,95239.08
2022-12-08T08:52:20.252Z,95235.02
2022-12-08T08:54:48.287Z,95233.39
2022-12-08T08:57:18.456Z,95225.70
2022-12-08T08:59:50.327Z,95221.15
2022-12-08T09:02:19.010Z,95222.11
2022-12-08T09:04:47.542Z,95210.30
2022-12-08T09:07:16.137Z,95206.83
2022-12-08T09:09:44.131Z,95210.81
2022-12-08T09:12:12.795Z,95210.36
2022-12-08T09:14:40.790Z,95202.29
2022-12-08T09:17:09.136Z,95202.71
2022-12-08T09:19:37.429Z,95196.02
2022-12-08T09:22:06.232Z,95191.30
2022-12-08T09:24:34.359Z,95187.77
2022-12-08T09:27:02.730Z,95186.34
2022-12-08T09:29:35.576Z,95191.67
2022-12-08T09:32:04.877Z,95198.77
2022-12-08T09:34:32.770Z,95198.48
2022-12-08T09:37:00.799Z,95192.64
2022-12-08T09:39:28.817Z,95194.05
2022-12-08T09:42:01.418Z,95191.02
2022-12-08T09:44:55.429Z,95186.68
2022-12-08T09:47:35.267Z,95185.21
2022-12-08T09:50:11.791Z,95175.14
2022-12-08T09:52:43.685Z,95180.06
2022-12-08T09:55:15.665Z,95172.36
2022-12-08T09:57:44.046Z,95167.86
2022-12-08T10:00:13.006Z,95166.10
2022-12-08T10:02:41.164Z,95164.31
2022-12-08T10:05:13.998Z,95167.26
2022-12-08T10:07:45.684Z,95166.83
2022-12-08T10:10:20.173Z,95165.86
2022-12-08T10:12:58.541Z,95159.10
2022-12-08T10:15:33.162Z,95157.70
2022-12-08T10:18:02.980Z,95144.68
2022-12-08T10:20:39.422Z,95138.79
2022-12-08T10:23:07.580Z,95137.55
2022-12-08T10:25:38.310Z,95134.59
2022-12-08T10:28:06.280Z,95128.33
2022-12-08T10:30:34.351Z,95120.66
2022-12-08T10:33:02.429Z,95122.89
2022-12-08T10:35:49.517Z,95123.42
2022-12-08T10:38:19.777Z,95125.13
2022-12-08T10:40:48.792Z,95124.09
2022-12-08T10:43:25.015Z,95124.64
2022-12-08T10:45:53.114Z,95117.13
2022-12-08T10:48:22.813Z,95114.60
2022-12-08T10:50:58.168Z,95119.20
2022-12-08T10:53:27.695Z,95117.84
2022-12-08T10:56:02.272Z,95107.24
2022-12-08T10:58:30.968Z,95103.55
2022-12-08T11:01:01.889Z,95101.84
2022-12-08T11:03:34.796Z,95102.31
2022-12-08T11:06:12.107Z,95099.88
2022-12-08T11:08:48.262Z,95090.69
2022-12-08T11:11:17.071Z,95083.39
2022-12-08T11:13:47.716Z,95079.95
2022-12-08T11:16:16.839Z,95084.73
2022-12-08T11:18:51.115Z,95081.69
2022-12-08T11:21:19.643Z,95081.16
2022-12-08T11:23:49.991Z,95084.08
2022-12-08T11:26:24.038Z,95089.46
2022-12-08T11:28:52.383Z,95089.27
2022-12-08T11:31:32.422Z,95083.40
2022-12-08T11:34:02.095Z,95077.06
2022-12-08T11:36:32.686Z,95074.77
2022-12-08T11:39:02.939Z,95079.57
2022-12-08T11:41:35.234Z,95072.59
2022-12-08T11:44:23.754Z,95070.63
2022-12-08T11:46:57.046Z,95073.24
2022-12-08T11:52:20.941Z,95071.48
2022-12-08T11:54:52.391Z,95070.10
2022-12-08T11:57:21.285Z,95067.48
2022-12-08T11:59:50.446Z,95066.36
2022-12-08T12:02:20.893Z,95063.98
2022-12-08T12:04:52.973Z,95070.78
2022-12-08T12:07:26.368Z,95070.02
2022-12-08T12:09:57.296Z,95056.39
2022-12-08T12:12:51.927Z,95056.71
2022-12-08T12:15:38.829Z,95050.02
2022-12-08T12:18:30.243Z,95040.75
2022-12-08T12:21:16.358Z,95030.04
2022-12-08T12:23:46.870Z,95031.94
2022-12-08T12:26:22.711Z,95031.71
2022-12-08T12:29:05.334Z,95028.27
2022-12-08T12:31:35.452Z,95027.48
2022-12-08T12:34:07.870Z,95023.61
2022-12-08T12:36:47.780Z,95021.31
2022-12-08T12:39:18.618Z,95025.95
2022-12-08T12:41:49.047Z,95026.33
2022-12-08T12:44:37.611Z,95018.88
2022-12-08T12:47:10.598Z,95013.45
2022-12-08T12:49:38.908Z,95014.60
2022-12-08T12:52:09.805Z,95016.33
2022-12-08T12:54:42.235Z,95013.16
2022-12-08T12:57:10.220Z,95018.84
2022-12-08T12:59:44.478Z,95012.65
2022-12-08T13:02:21.874Z,95011.13
2022-12-08T13:04:56.585Z,95015.61
2022-12-08T13:07:27.118Z,95013.06
2022-12-08T13:10:13.964Z,95002.18
2022-12-08T13:12:43.755Z,95001.67
2022-12-08T13:15:22.157Z,94996.34
2022-12-08T13:17:50.333Z,94988.60
2022-12-08T13:20:24.103Z,94987.69
2022-12-08T13:23:01.324Z,94989.88
2022-12-08T13:25:44.998Z,94990.45
2022-12-08T13:28:15.690Z,94986.02
2022-12-08T13:30:49.050Z,94983.27
2022-12-08T13:33:19.780Z,94979.57
2022-12-08T13:35:52.317Z,94983.56
2022-12-08T13:38:21.560Z,94978.65
2022-12-08T13:40:50.533Z,94982.74
2022-12-08T13:43:24.694Z,94981.20
2022-12-08T13:57:30.447Z,94974.42
2022-12-08T14:00:03.581Z,94976.33
2022-12-08T14:02:47.993Z,94975.41
2022-12-08T14:05:19.607Z,94968.69
2022-12-08T14:07:52.018Z,94981.38
2022-12-08T14:10:22.529Z,94983.66
2022-12-08T14:13:12.377Z,94975.67
2022-12-08T14:15:40.407Z,94973.55
2022-12-08T14:18:22.883Z,94973.40
2022-12-08T14:21:20.919Z,94975.84
2022-12-08T14:23:49.557Z,94978.20
2022-12-08T14:26:18.050Z,94979.06
2022-12-08T14:28:46.009Z,94973.34
2022-12-08T14:31:15.014Z,94968.92
2022-12-08T14:33:43.355Z,94966.14
2022-12-08T14:36:14.689Z,94972.00
2022-12-08T14:38:42.905Z,94976.34
2022-12-08T14:41:12.154Z,94972.76
2022-12-08T14:43:43.697Z,94978.37
2022-12-08T14:46:23.633Z,94978.98
2022-12-08T14:48:53.774Z,94973.62
2022-12-08T14:51:21.799Z,94969.92
2022-12-08T14:53:59.069Z,94970.84
2022-12-08T14:56:33.879Z,94969.49
2022-12-08T14:59:23.212Z,94965.92
2022-12-08T15:01:52.725Z,94967.05
2022-12-08T15:04:24.448Z,94959.49
2022-12-08T15:06:58.104Z,94955.71
2022-12-08T15:09:32.219Z,94962.03
2022-12-08T15:12:01.744Z,94959.06
2022-12-08T15:14:32.054Z,94963.04
2022-12-08T15:17:00.039Z,94965.07
2022-12-08T15:19:29.900Z,94963.33
2022-12-08T15:22:00.404Z,94960.63
2022-12-08T15:24:30.620Z,94949.57
2022-12-08T15:26:58.774Z,94947.30
2022-12-08T15:29:28.085Z,94944.28
2022-12-08T15:31:58.015Z,94940.66
2022-12-08T15:34:26.303Z,94938.23
2022-12-08T15:36:54.867Z,94934.74
2022-12-08T15:39:22.783Z,94930.08
2022-12-08T15:41:50.807Z,94932.67
2022-12-08T15:44:18.952Z,94935.17
2022-12-08T15:46:47.081Z,94939.02
2022-12-08T15:49:17.493Z,94938.73
2022-12-08T15:51:45.607Z,94945.73
2022-12-08T15:54:14.559Z,94944.64
2022-12-08T15:57:17.841Z,94929.77
2022-12-08T15:59:41.943Z,94927.85
2022-12-08T16:02:12.622Z,94928.13
2022-12-08T16:07:31.128Z,94937.08
2022-12-08T16:09:59.234Z,94946.64
2022-12-08T16:13:48.150Z,94939.91
2022-12-08T16:15:59.101Z,94922.65
2022-12-08T16:18:26.918Z,94919.89
2022-12-08T16:21:23.843Z,94920.44
2022-12-08T16:23:44.538Z,94920.85
2022-12-08T16:27:01.057Z,94917.05
2022-12-08T16:29:11.370Z,94904.49
2022-12-08T16:31:39.298Z,94902.02
2022-12-08T16:34:07.530Z,94897.19
2022-12-08T16:36:35.460Z,94907.06
2022-12-08T16:39:03.506Z,94905.94
2022-12-08T16:41:50.530Z,94911.55
2022-12-08T16:44:18.408Z,94911.27
2022-12-08T16:46:46.451Z,94909.09
2022-12-08T16:49:15.673Z,94900.74
2022-12-08T16:51:44.045Z,94902.25
2022-12-08T16:54:12.311Z,94899.09
2022-12-08T16:56:40.196Z,94898.79
2022-12-08T16:59:08.260Z,94895.96
2022-12-08T17:01:36.509Z,94901.31
2022-12-08T17:04:30.389Z,94906.52
2022-12-08T17:06:53.047Z,94907.35
2022-12-08T17:09:21.048Z,94900.52
2022-12-08T17:11:49.139Z,94903.58
2022-12-08T17:14:17.049Z,94902.61
2022-12-08T17:16:45.054Z,94904.17
2022-12-08T17:19:13.689Z,94909.30
2022-12-08T17:21:41.979Z,94914.63
2022-12-08T17:24:10.064Z,94914.35
2022-12-08T17:26:37.970Z,94919.52
2022-12-08T17:29:05.888Z,94918.20
2022-12-08T17:31:34.176Z,94919.75
2022-12-08T17:34:03.361Z,94913.83
2022-12-08T17:36:31.221Z,94910.44
2022-12-08T17:39:00.559Z,94910.20
2022-12-08T17:41:28.918Z,94907.75
2022-12-08T17:43:57.342Z,94903.29
2022-12-08T17:46:25.752Z,94906.20
2022-12-08T17:48:53.894Z,94902.22
2022-12-08T17:51:22.360Z,94905.43
2022-12-08T17:53:50.425Z,94903.18
2022-12-08T17:56:19.825Z,94908.82
2022-12-08T17:58:54.038Z,94907.03
2022-12-08T18:01:23.698Z,94908.38
2022-12-08T18:03:51.955Z,94905.00
2022-12-08T18:06:20.384Z,94902.34
2022-12-08T18:08:48.412Z,94902.55
2022-12-08T18:11:17.972Z,94901.02
2022-12-08T18:13:47.359Z,94894.54
2022-12-08T18:16:15.278Z,94893.11
2022-12-08T18:18:43.489Z,94895.83
2022-12-08T18:21:11.671Z,94895.70
2022-12-08T18:23:40.566Z,94895.86
2022-12-08T18:26:10.109Z,94896.66
2022-12-08T18:28:38.301Z,94894.63
2022-12-08T18:31:10.964Z,94894.70
2022-12-08T18:33:39.978Z,94889.26
2022-12-08T18:36:09.420Z,94891.58
2022-12-08T18:38:37.607Z,94895.65
2022-12-08T18:41:13.604Z,94890.38
2022-12-08T18:43:41.830Z,94889.94
2022-12-08T18:46:10.953Z,94885.83
2022-12-08T18:48:41.547Z,94881.23
2022-12-08T18:51:11.747Z,94882.30
2022-12-08T18:53:40.032Z,94883.58
2022-12-08T18:56:08.723Z,94883.70
2022-12-08T18:58:36.797Z,94888.30
2022-12-08T19:01:04.837Z,94888.97
2022-12-08T19:03:32.904Z,94885.73
2022-12-08T19:06:04.301Z,94885.05
2022-12-08T19:08:32.635Z,94876.51
2022-12-08T19:11:00.870Z,94879.23
2022-12-08T19:13:28.840Z,94882.33
2022-12-08T19:15:56.938Z,94885.64
2022-12-08T19:18:24.997Z,94884.77
2022-12-08T19:20:56.948Z,94870.94
2022-12-08T19:23:25.065Z,94859.69
2022-12-08T19:25:52.888Z,94861.59
2022-12-08T19:28:20.854Z,94864.58
2022-12-08T19:30:49.084Z,94866.17
2022-12-08T19:33:17.250Z,94866.05
2022-12-08T19:35:52.058Z,94864.81
2022-12-08T19:38:20.568Z,94866.16
2022-12-08T19:41:07.285Z,94861.33
2022-12-08T19:43:54.301Z,94866.97
2022-12-08T19:46:22.445Z,94865.80
2022-12-08T19:48:50.563Z,94862.15
2022-12-08T19:51:18.562Z,94867.29
2022-12-08T19:53:48.029Z,94859.70
2022-12-08T19:56:16.246Z,94860.84
2022-12-08T19:58:44.179Z,94854.88
2022-12-08T20:01:12.119Z,94854.92
2022-12-08T20:03:40.223Z,94850.20
2022-12-08T20:06:13.161Z,94847.17
2022-12-08T20:08:44.827Z,94849.61
2022-12-08T20:11:15.749Z,94859.48
2022-12-08T20:13:47.880Z,94866.89
2022-12-08T20:16:16.916Z,94867.32
2022-12-08T20:18:46.040Z,94862.79
2022-12-08T20:21:14.133Z,94868.23
2022-12-08T20:23:42.452Z,94869.61
2022-12-08T20:26:13.147Z,94868.11
2022-12-08T20:28:41.112Z,94870.51
2022-12-08T20:31:16.897Z,94870.52
2022-12-08T20:33:44.929Z,94871.58
2022-12-08T20:36:15.577Z,94867.20
2022-12-08T20:38:43.685Z,94863.55
2022-12-08T20:41:11.662Z,94868.35
2022-12-08T20:43:39.931Z,94872.67
2022-12-08T20:46:08.732Z,94867.76
2022-12-08T20:48:37.070Z,94871.00
2022-12-08T20:51:05.195Z,94872.36
2022-12-08T20:53:33.318Z,94870.41
2022-12-08T20:56:01.175Z,94874.66
2022-12-08T20:58:29.247Z,94870.92
2022-12-08T21:04:27.569Z,94874.27
2022-12-08T21:06:56.042Z,94874.42
2022-12-08T21:09:24.270Z,94874.00
2022-12-08T21:11:52.496Z,94874.35
2022-12-08T21:14:20.819Z,94877.64
2022-12-08T21:16:51.017Z,94871.36
2022-12-08T21:19:20.611Z,94865.23
2022-12-08T21:21:50.873Z,94860.46
2022-12-08T21:24:19.018Z,94861.48
2022-12-08T21:26:47.169Z,94861.02
2022-12-08T21:29:15.216Z,94859.83
2022-12-08T21:31:43.336Z,94862.64
2022-12-08T21:34:11.502Z,94860.98
2022-12-08T21:36:39.736Z,94860.23
2022-12-08T21:39:12.825Z,94862.98
2022-12-08T21:41:59.844Z,94864.31
2022-12-08T21:44:27.827Z,94858.88
2022-12-08T21:46:55.757Z,94859.67
2022-12-08T21:49:24.114Z,94864.79
2022-12-08T21:51:52.228Z,94866.92
2022-12-08T21:54:20.292Z,94864.77
2022-12-08T21:56:49.741Z,94863.68
2022-12-08T21:59:18.140Z,94863.00
2022-12-08T22:01:46.801Z,94865.49
2022-12-08T22:04:19.213Z,94866.67
2022-12-08T22:06:48.086Z,94864.67
2022-12-08T22:09:16.425Z,94863.54
2022-12-08T22:11:44.881Z,94860.23
2022-12-08T22:14:15.153Z,94864.48
2022-12-08T22:16:44.359Z,94863.23
2022-12-08T22:19:12.813Z,94857.64
2022-12-08T22:21:41.601Z,94855.61
2022-12-08T22:24:09.836Z,94857.42
2022-12-08T22:26:38.185Z,94852.02
2022-12-08T22:29:06.850Z,94853.23
2022-12-08T22:31:34.942Z,94855.77
2022-12-08T22:34:03.225Z,94851.73
2022-12-08T22:36:31.177Z,94849.85
2022-12-08T22:38:59.068Z,94844.16
2022-12-08T22:41:27.058Z,94841.70
2022-12-08T22:43:55.047Z,94839.81
2022-12-08T22:46:23.926Z,94834.13
2022-12-08T22:48:52.360Z,94844.89
2022-12-08T22:51:20.326Z,94841.20
2022-12-08T22:53:49.448Z,94838.17
2022-12-08T22:56:18.673Z,94839.95
2022-12-08T22:58:46.996Z,94843.43
2022-12-08T23:01:23.046Z,94837.08
2022-12-08T23:03:51.441Z,94835.77
2022-12-08T23:06:19.876Z,94846.13
2022-12-08T23:08:48.511Z,94838.71
2022-12-08T23:11:16.716Z,94849.23
2022-12-08T23:13:44.684Z,94834.30
2022-12-08T23:16:13.311Z,94836.20
2022-12-08T23:18:42.549Z,94845.12
2022-12-08T23:21:12.610Z,94841.80
2022-12-08T23:23:41.072Z,94836.60
2022-12-08T23:26:17.061Z,94841.61
2022-12-08T23:28:45.344Z,94855.92
2022-12-08T23:31:13.395Z,94844.09
2022-12-08T23:33:41.733Z,94847.93
2022-12-08T23:36:10.678Z,94852.03
2022-12-08T23:38:39.085Z,94849.09
2022-12-08T23:41:08.270Z,94847.50
2022-12-08T23:43:36.522Z,94844.08
2022-12-08T23:46:04.757Z,94854.31
2022-12-08T23:48:35.048Z,94855.04
2022-12-08T23:51:03.286Z,94860.19
2022-12-08T23:53:32.047Z,94865.46
2022-12-08T23:56:01.310Z,94857.40
2022-12-08T23:58:33.289Z,94849.98
